createdAt,value
2022-10-02T00:03:32.411Z,56.85
2022-10-02T00:08:39.242Z,56.65
2022-10-02T00:13:43.028Z,56.32
2022-10-02T00:18:46.689Z,56.58
2022-10-02T00:23:58.606Z,57.00
2022-10-02T00:29:28.220Z,56.78
2022-10-02T00:35:13.278Z,56.57
2022-10-02T00:40:37.998Z,57.05
2022-10-02T00:46:03.240Z,56.62
2022-10-02T00:51:29.358Z,56.75
2022-10-02T00:56:34.262Z,56.84
2022-10-02T01:01:53.377Z,56.34
2022-10-02T01:06:56.099Z,56.39
2022-10-02T01:11:58.051Z,56.17
2022-10-02T01:17:00.461Z,56.14
2022-10-02T01:22:14.541Z,56.24
2022-10-02T01:27:16.497Z,56.19
2022-10-02T01:32:18.749Z,56.06
2022-10-02T01:37:27.681Z,56.00
2022-10-02T01:42:30.088Z,56.36
2022-10-02T01:47:44.278Z,56.47
2022-10-02T01:53:08.190Z,56.25
2022-10-02T01:58:40.532Z,56.48
2022-10-02T02:03:54.475Z,56.55
2022-10-02T02:09:24.204Z,56.52
2022-10-02T02:14:41.624Z,57.03
2022-10-02T02:19:50.472Z,56.63
2022-10-02T02:24:58.752Z,56.86
2022-10-02T02:30:05.609Z,56.85
2022-10-02T02:35:17.460Z,56.74
2022-10-02T02:40:29.554Z,57.15
2022-10-02T02:45:46.008Z,56.82
2022-10-02T02:50:53.491Z,56.35
2022-10-02T02:56:01.063Z,56.52
2022-10-02T03:01:03.028Z,56.71
2022-10-02T03:06:25.459Z,56.61
2022-10-02T03:11:49.206Z,56.57
2022-10-02T03:17:07.907Z,56.59
2022-10-02T03:22:09.745Z,56.47
2022-10-02T03:27:19.072Z,56.20
2022-10-02T03:32:21.637Z,56.31
2022-10-02T03:37:28.618Z,56.36
2022-10-02T03:42:33.202Z,55.94
2022-10-02T03:47:35.029Z,55.94
2022-10-02T03:52:36.840Z,55.88
2022-10-02T03:57:38.911Z,55.68
2022-10-02T04:02:44.779Z,55.63
2022-10-02T04:07:52.992Z,55.65
2022-10-02T04:13:02.502Z,55.55
2022-10-02T04:18:11.622Z,55.58
2022-10-02T04:23:44.076Z,55.90
2022-10-02T04:28:57.657Z,55.75
2022-10-02T04:34:03.269Z,55.90
2022-10-02T04:39:20.537Z,55.76
2022-10-02T04:44:40.833Z,56.01
2022-10-02T04:50:10.808Z,56.03
2022-10-02T04:55:27.006Z,55.99
2022-10-02T05:00:45.223Z,56.30
2022-10-02T05:06:22.800Z,56.35
2022-10-02T05:11:38.017Z,56.31
2022-10-02T05:17:12.963Z,56.39
2022-10-02T05:22:29.961Z,56.74
2022-10-02T05:28:12.382Z,56.85
2022-10-02T05:33:38.235Z,56.85
2022-10-02T05:38:58.421Z,56.91
2022-10-02T05:44:09.145Z,56.34
2022-10-02T05:49:23.165Z,56.43
2022-10-02T05:54:37.388Z,56.41
2022-10-02T05:59:57.272Z,56.31
2022-10-02T06:05:15.079Z,55.66
2022-10-02T06:10:22.213Z,55.78
2022-10-02T06:15:33.375Z,55.73
2022-10-02T06:20:43.429Z,55.54
2022-10-02T06:25:51.502Z,55.75
2022-10-02T06:31:00.975Z,55.54
2022-10-02T06:36:13.790Z,55.45
2022-10-02T06:41:30.413Z,55.10
2022-10-02T06:46:37.243Z,54.44
2022-10-02T06:52:22.209Z,54.13
2022-10-02T06:57:39.711Z,53.94
2022-10-02T07:03:20.456Z,53.19
2022-10-02T07:08:47.005Z,52.67
2022-10-02T07:14:14.682Z,52.25
2022-10-02T07:19:19.548Z,51.62
2022-10-02T07:24:42.757Z,51.48
2022-10-02T07:29:55.891Z,51.19
2022-10-02T07:35:20.817Z,50.78
2022-10-02T07:40:22.780Z,50.37
2022-10-02T07:45:37.006Z,49.97
2022-10-02T07:50:41.837Z,49.79
2022-10-02T07:55:48.682Z,49.76
2022-10-02T08:00:58.034Z,49.64
2022-10-02T08:06:00.854Z,49.68
2022-10-02T08:11:17.262Z,49.37
2022-10-02T08:16:23.426Z,48.69
2022-10-02T08:21:26.852Z,48.69
2022-10-02T08:26:42.641Z,48.19
2022-10-02T08:31:45.081Z,47.98
2022-10-02T08:37:02.359Z,47.44
2022-10-02T08:42:17.805Z,47.27
2022-10-02T08:47:54.779Z,46.88
2022-10-02T08:53:18.769Z,46.87
2022-10-02T08:58:51.419Z,46.32
2022-10-02T09:04:40.632Z,46.58
2022-10-02T09:10:01.339Z,46.37
2022-10-02T09:15:14.059Z,45.61
2022-10-02T09:20:21.765Z,45.46
2022-10-02T09:25:44.705Z,45.76
2022-10-02T09:31:24.797Z,45.40
2022-10-02T09:36:38.956Z,45.06
2022-10-02T09:41:41.303Z,44.76
2022-10-02T09:47:22.101Z,44.94
2022-10-02T09:53:03.491Z,44.95
2022-10-02T09:58:32.283Z,45.19
2022-10-02T10:03:37.195Z,46.47
2022-10-02T10:09:01.087Z,47.25
2022-10-02T10:14:22.852Z,48.64
2022-10-02T10:19:49.788Z,49.42
2022-10-02T10:25:13.015Z,49.94
2022-10-02T10:30:31.196Z,49.77
2022-10-02T10:36:01.589Z,49.64
2022-10-02T10:41:40.664Z,49.38
2022-10-02T10:46:45.352Z,49.06
2022-10-02T10:51:59.486Z,49.20
2022-10-02T10:57:16.281Z,48.24
2022-10-02T11:02:36.101Z,48.30
2022-10-02T11:07:59.576Z,47.96
2022-10-02T11:13:25.209Z,48.00
2022-10-02T11:18:50.108Z,47.99
2022-10-02T11:23:57.766Z,47.77
2022-10-02T11:29:22.397Z,46.86
2022-10-02T11:34:42.918Z,47.04
2022-10-02T11:40:16.628Z,47.33
2022-10-02T11:45:38.802Z,47.92
2022-10-02T11:51:10.321Z,47.93
2022-10-02T11:56:40.336Z,47.97
2022-10-02T12:01:47.567Z,48.13
2022-10-02T12:07:15.230Z,48.28
2022-10-02T12:12:51.634Z,48.51
2022-10-02T12:18:21.632Z,48.16
2022-10-02T12:24:24.654Z,47.88
2022-10-02T12:29:54.407Z,47.31
2022-10-02T12:34:56.204Z,47.53
2022-10-02T12:40:23.640Z,47.52
2022-10-02T12:45:44.094Z,47.09
2022-10-02T12:51:18.779Z,46.86
2022-10-02T12:56:57.464Z,46.87
2022-10-02T13:03:01.148Z,47.31
2022-10-02T13:08:35.430Z,47.27
2022-10-02T13:13:53.308Z,46.76
2022-10-02T13:19:19.040Z,46.39
2022-10-02T13:24:39.630Z,46.09
2022-10-02T13:29:45.921Z,46.41
2022-10-02T13:35:36.568Z,46.29
2022-10-02T13:41:08.099Z,46.46
2022-10-02T13:46:45.326Z,46.42
2022-10-02T13:52:31.938Z,46.93
2022-10-02T13:57:58.591Z,47.53
2022-10-02T14:03:28.394Z,47.79
2022-10-02T14:09:07.773Z,46.75
2022-10-02T14:14:40.383Z,45.42
2022-10-02T14:20:00.058Z,45.87
2022-10-02T14:25:32.411Z,46.27
2022-10-02T14:31:00.193Z,46.78
2022-10-02T14:36:40.637Z,46.58
2022-10-02T14:42:28.832Z,46.96
2022-10-02T14:48:03.084Z,46.89
2022-10-02T14:53:18.499Z,47.42
2022-10-02T14:58:30.349Z,47.39
2022-10-02T15:03:54.530Z,47.21
2022-10-02T15:09:03.198Z,46.84
2022-10-02T15:14:36.665Z,46.75
2022-10-02T15:20:30.261Z,46.96
2022-10-02T15:25:39.357Z,47.39
2022-10-02T15:30:52.923Z,47.70
2022-10-02T15:36:26.503Z,47.65
2022-10-02T15:41:52.458Z,47.90
2022-10-02T15:47:19.713Z,48.06
2022-10-02T15:52:44.194Z,48.36
2022-10-02T15:58:06.434Z,48.32
2022-10-02T16:03:25.982Z,48.49
2022-10-02T16:08:46.443Z,48.78
2022-10-02T16:13:50.959Z,49.07
2022-10-02T16:19:07.524Z,49.02
2022-10-02T16:24:36.959Z,49.14
2022-10-02T16:29:53.984Z,49.29
2022-10-02T16:35:16.550Z,49.86
2022-10-02T16:40:36.422Z,50.38
2022-10-02T16:45:38.382Z,49.95
2022-10-02T16:51:12.694Z,50.41
2022-10-02T16:56:44.903Z,50.49
2022-10-02T17:02:17.677Z,50.93
2022-10-02T17:07:38.185Z,51.51
2022-10-02T17:12:53.299Z,52.30
2022-10-02T17:18:28.391Z,53.45
2022-10-02T17:24:07.602Z,53.37
2022-10-02T17:29:26.736Z,54.02
2022-10-02T17:34:32.708Z,53.63
2022-10-02T17:39:50.332Z,54.14
2022-10-02T17:45:13.723Z,54.27
2022-10-02T17:50:33.220Z,54.02
2022-10-02T17:56:13.569Z,54.08
2022-10-02T18:01:29.283Z,54.08
2022-10-02T18:06:42.004Z,55.12
2022-10-02T18:12:28.159Z,55.52
2022-10-02T18:17:46.403Z,55.48
2022-10-02T18:22:48.342Z,55.77
2022-10-02T18:28:09.025Z,55.90
2022-10-02T18:33:27.210Z,55.76
2022-10-02T18:38:53.545Z,56.60
2022-10-02T18:44:21.234Z,56.47
2022-10-02T18:49:23.329Z,56.35
2022-10-02T18:54:46.193Z,56.19
2022-10-02T19:00:21.713Z,55.91
2022-10-02T19:05:35.565Z,55.92
2022-10-02T19:10:45.245Z,55.62
2022-10-02T19:15:49.373Z,55.91
2022-10-02T19:21:06.874Z,55.65
2022-10-02T19:26:23.824Z,55.74
2022-10-02T19:31:28.905Z,56.09
2022-10-02T19:36:42.069Z,55.85
2022-10-02T19:41:45.164Z,56.00
2022-10-02T19:46:55.608Z,56.24
2022-10-02T19:51:57.712Z,55.73
2022-10-02T19:57:15.476Z,55.37
2022-10-02T20:02:25.666Z,55.67
2022-10-02T20:07:31.046Z,55.58
2022-10-02T20:12:44.374Z,55.52
2022-10-02T20:17:47.380Z,55.44
2022-10-02T20:22:56.021Z,55.94
2022-10-02T20:28:05.845Z,55.81
2022-10-02T20:33:29.213Z,55.79
2022-10-02T20:38:47.339Z,55.53
2022-10-02T20:44:02.250Z,55.81
2022-10-02T20:49:37.730Z,55.38
2022-10-02T20:54:54.272Z,55.78
2022-10-02T21:00:17.160Z,56.31
2022-10-02T21:05:54.675Z,56.34
2022-10-02T21:11:18.107Z,55.94
2022-10-02T21:16:35.046Z,56.47
2022-10-02T21:21:49.334Z,56.43
2022-10-02T21:27:27.827Z,56.40
2022-10-02T21:32:50.316Z,56.05
2022-10-02T21:38:31.181Z,56.41
2022-10-02T21:44:21.021Z,56.56
2022-10-02T21:49:41.952Z,56.77
2022-10-02T21:55:17.493Z,57.31
2022-10-02T22:00:22.207Z,57.01
2022-10-02T22:05:42.569Z,56.66
2022-10-02T22:11:02.870Z,56.78
2022-10-02T22:16:13.748Z,56.73
2022-10-02T22:21:49.180Z,56.90
2022-10-02T22:27:15.078Z,56.67
2022-10-02T22:32:38.133Z,56.49
2022-10-02T22:37:40.116Z,56.89
2022-10-02T22:42:49.350Z,57.02
2022-10-02T22:48:00.652Z,56.84
2022-10-02T22:53:09.134Z,57.40
2022-10-02T22:58:16.103Z,57.09
2022-10-02T23:03:50.604Z,57.54
2022-10-02T23:09:30.163Z,57.50
2022-10-02T23:14:40.656Z,57.43
2022-10-02T23:19:47.262Z,57.11
2022-10-02T23:24:52.070Z,57.23
2022-10-02T23:30:11.399Z,57.33
2022-10-02T23:35:14.084Z,57.48
2022-10-02T23:40:47.221Z,57.74
2022-10-02T23:46:00.187Z,57.64
2022-10-02T23:51:35.316Z,57.74
2022-10-02T23:56:40.312Z,58.04
